sensor_id;sensor_type;location;lat;lon;timestamp;temperature;humidity
54168;DHT22;40072;50.958;3.592;2022-11-15T04:31:23;9.90;99.90
54168;DHT22;40072;50.958;3.592;2022-11-15T04:33:49;9.90;99.90
54168;DHT22;40072;50.958;3.592;2022-11-15T04:36:14;9.90;99.90
54168;DHT22;40072;50.958;3.592;2022-11-15T04:38:59;9.80;99.90
54168;DHT22;40072;50.958;3.592;2022-11-15T04:41:24;9.70;99.90
54168;DHT22;40072;50.958;3.592;2022-11-15T04:43:50;9.60;99.90
54168;DHT22;40072;50.958;3.592;2022-11-15T04:46:15;9.60;99.90
54168;DHT22;40072;50.958;3.592;2022-11-15T04:48:41;9.60;99.90
54168;DHT22;40072;50.958;3.592;2022-11-15T04:51:07;9.50;99.90
54168;DHT22;40072;50.958;3.592;2022-11-15T04:53:32;9.50;99.90
54168;DHT22;40072;50.958;3.592;2022-11-15T04:55:58;9.50;99.90
54168;DHT22;40072;50.958;3.592;2022-11-15T04:58:24;9.50;99.90
54168;DHT22;40072;50.958;3.592;2022-11-15T05:00:49;9.70;99.90
54168;DHT22;40072;50.958;3.592;2022-11-15T05:03:15;9.60;99.90
54168;DHT22;40072;50.958;3.592;2022-11-15T05:05:59;9.50;99.90
54168;DHT22;40072;50.958;3.592;2022-11-15T05:08:25;9.50;99.90
54168;DHT22;40072;50.958;3.592;2022-11-15T05:10:51;9.60;99.90
54168;DHT22;40072;50.958;3.592;2022-11-15T05:13:17;9.50;99.90
54168;DHT22;40072;50.958;3.592;2022-11-15T05:15:42;9.40;99.90
54168;DHT22;40072;50.958;3.592;2022-11-15T05:18:08;9.40;99.90
54168;DHT22;40072;50.958;3.592;2022-11-15T05:20:34;9.30;99.90
54168;DHT22;40072;50.958;3.592;2022-11-15T05:23:00;9.20;99.90
54168;DHT22;40072;50.958;3.592;2022-11-15T05:25:26;9.20;99.90
54168;DHT22;40072;50.958;3.592;2022-11-15T05:27:52;9.40;99.90
54168;DHT22;40072;50.958;3.592;2022-11-15T05:30:18;9.30;99.90
54168;DHT22;40072;50.958;3.592;2022-11-15T05:32:43;9.40;99.90
54168;DHT22;40072;50.958;3.592;2022-11-15T05:35:15;9.40;99.90
54168;DHT22;40072;50.958;3.592;2022-11-15T05:37:43;9.30;99.90
54168;DHT22;40072;50.958;3.592;2022-11-15T05:40:09;9.20;99.90
54168;DHT22;40072;50.958;3.592;2022-11-15T05:42:35;9.10;99.90
54168;DHT22;40072;50.958;3.592;2022-11-15T05:45:03;9.20;99.90
54168;DHT22;40072;50.958;3.592;2022-11-15T05:47:30;9.20;99.90
54168;DHT22;40072;50.958;3.592;2022-11-15T05:49:56;9.20;99.90
54168;DHT22;40072;50.958;3.592;2022-11-15T05:52:27;9.10;99.90
54168;DHT22;40072;50.958;3.592;2022-11-15T05:54:53;9.20;99.90
54168;DHT22;40072;50.958;3.592;2022-11-15T05:57:21;9.10;99.90
54168;DHT22;40072;50.958;3.592;2022-11-15T05:59:46;9.20;99.90
54168;DHT22;40072;50.958;3.592;2022-11-15T06:02:12;9.20;99.90
54168;DHT22;40072;50.958;3.592;2022-11-15T06:04:38;9.10;99.90
54168;DHT22;40072;50.958;3.592;2022-11-15T06:07:03;9.20;99.90
54168;DHT22;40072;50.958;3.592;2022-11-15T06:09:29;9.20;99.90
54168;DHT22;40072;50.958;3.592;2022-11-15T06:11:55;9.10;99.90
54168;DHT22;40072;50.958;3.592;2022-11-15T06:14:20;9.20;99.90
54168;DHT22;40072;50.958;3.592;2022-11-15T06:16:46;9.10;99.90
54168;DHT22;40072;50.958;3.592;2022-11-15T06:19:12;9.10;99.90
54168;DHT22;40072;50.958;3.592;2022-11-15T06:21:37;9.20;99.90
54168;DHT22;40072;50.958;3.592;2022-11-15T06:24:03;9.20;99.90
54168;DHT22;40072;50.958;3.592;2022-11-15T06:26:29;9.30;99.90
54168;DHT22;40072;50.958;3.592;2022-11-15T06:28:55;9.30;99.90
54168;DHT22;40072;50.958;3.592;2022-11-15T06:31:21;9.30;99.90
54168;DHT22;40072;50.958;3.592;2022-11-15T06:33:46;9.20;99.90
54168;DHT22;40072;50.958;3.592;2022-11-15T06:36:13;9.20;99.90
54168;DHT22;40072;50.958;3.592;2022-11-15T06:38:45;9.20;99.90
54168;DHT22;40072;50.958;3.592;2022-11-15T06:41:12;9.20;99.90
54168;DHT22;40072;50.958;3.592;2022-11-15T06:43:38;9.20;99.90
54168;DHT22;40072;50.958;3.592;2022-11-15T06:46:05;9.20;99.90
54168;DHT22;40072;50.958;3.592;2022-11-15T06:48:32;9.30;99.90
54168;DHT22;40072;50.958;3.592;2022-11-15T06:51:00;9.30;99.90
54168;DHT22;40072;50.958;3.592;2022-11-15T06:53:26;9.30;99.90
54168;DHT22;40072;50.958;3.592;2022-11-15T06:55:52;9.30;99.90
54168;DHT22;40072;50.958;3.592;2022-11-15T06:58:18;9.30;99.90
54168;DHT22;40072;50.958;3.592;2022-11-15T07:00:44;9.30;99.90
54168;DHT22;40072;50.958;3.592;2022-11-15T07:03:10;9.20;99.90
54168;DHT22;40072;50.958;3.592;2022-11-15T07:05:36;9.20;99.90
54168;DHT22;40072;50.958;3.592;2022-11-15T07:08:02;9.20;99.90
54168;DHT22;40072;50.958;3.592;2022-11-15T07:10:28;9.30;99.90
54168;DHT22;40072;50.958;3.592;2022-11-15T07:12:55;9.40;99.90
54168;DHT22;40072;50.958;3.592;2022-11-15T07:15:24;9.40;99.90
54168;DHT22;40072;50.958;3.592;2022-11-15T07:17:50;9.40;99.90
54168;DHT22;40072;50.958;3.592;2022-11-15T07:20:17;9.40;99.90
54168;DHT22;40072;50.958;3.592;2022-11-15T07:22:43;9.40;99.90
54168;DHT22;40072;50.958;3.592;2022-11-15T07:25:10;9.50;99.90
54168;DHT22;40072;50.958;3.592;2022-11-15T07:27:36;9.60;99.90
54168;DHT22;40072;50.958;3.592;2022-11-15T07:30:02;9.70;99.90
54168;DHT22;40072;50.958;3.592;2022-11-15T07:32:27;9.70;99.90
54168;DHT22;40072;50.958;3.592;2022-11-15T07:34:54;9.80;99.90
54168;DHT22;40072;50.958;3.592;2022-11-15T07:37:19;9.90;99.90
54168;DHT22;40072;50.958;3.592;2022-11-15T07:39:45;9.90;99.90
54168;DHT22;40072;50.958;3.592;2022-11-15T07:42:10;10.00;99.90
54168;DHT22;40072;50.958;3.592;2022-11-15T07:44:55;10.00;99.90
54168;DHT22;40072;50.958;3.592;2022-11-15T07:47:21;10.00;99.90
54168;DHT22;40072;50.958;3.592;2022-11-15T07:49:47;9.90;99.90
54168;DHT22;40072;50.958;3.592;2022-11-15T07:52:13;10.00;99.90
54168;DHT22;40072;50.958;3.592;2022-11-15T07:54:39;10.30;99.90
54168;DHT22;40072;50.958;3.592;2022-11-15T07:57:05;10.90;99.90
54168;DHT22;40072;50.958;3.592;2022-11-15T07:59:32;11.30;99.90
54168;DHT22;40072;50.958;3.592;2022-11-15T08:01:58;11.60;99.90
54168;DHT22;40072;50.958;3.592;2022-11-15T08:04:24;12.10;99.90
54168;DHT22;40072;50.958;3.592;2022-11-15T08:06:49;12.40;99.90
54168;DHT22;40072;50.958;3.592;2022-11-15T08:09:15;12.80;99.90
54168;DHT22;40072;50.958;3.592;2022-11-15T08:11:40;13.10;99.90
54168;DHT22;40072;50.958;3.592;2022-11-15T08:14:06;13.10;99.90
54168;DHT22;40072;50.958;3.592;2022-11-15T08:16:32;13.00;99.90
54168;DHT22;40072;50.958;3.592;2022-11-15T08:18:58;12.80;99.90
54168;DHT22;40072;50.958;3.592;2022-11-15T08:21:24;12.60;99.90
54168;DHT22;40072;50.958;3.592;2022-11-15T08:23:56;12.70;99.90
54168;DHT22;40072;50.958;3.592;2022-11-15T08:26:21;12.70;99.90
54168;DHT22;40072;50.958;3.592;2022-11-15T08:28:47;12.30;99.90
54168;DHT22;40072;50.958;3.592;2022-11-15T08:31:14;11.90;99.90
54168;DHT22;40072;50.958;3.592;2022-11-15T08:33:42;11.60;99.90
54168;DHT22;40072;50.958;3.592;2022-11-15T08:36:15;11.60;99.90
54168;DHT22;40072;50.958;3.592;2022-11-15T08:38:42;11.50;99.90
54168;DHT22;40072;50.958;3.592;2022-11-15T08:41:17;12.10;99.90
54168;DHT22;40072;50.958;3.592;2022-11-15T08:43:47;13.30;99.90
54168;DHT22;40072;50.958;3.592;2022-11-15T08:46:13;14.20;99.90
54168;DHT22;40072;50.958;3.592;2022-11-15T08:48:39;15.10;99.90
54168;DHT22;40072;50.958;3.592;2022-11-15T08:51:05;15.70;99.90
54168;DHT22;40072;50.958;3.592;2022-11-15T08:53:30;15.70;99.90
54168;DHT22;40072;50.958;3.592;2022-11-15T08:55:56;15.80;99.90
54168;DHT22;40072;50.958;3.592;2022-11-15T08:58:22;15.90;99.90
54168;DHT22;40072;50.958;3.592;2022-11-15T09:00:48;16.70;99.90
54168;DHT22;40072;50.958;3.592;2022-11-15T09:03:13;17.40;99.90
54168;DHT22;40072;50.958;3.592;2022-11-15T09:05:39;17.30;99.90
54168;DHT22;40072;50.958;3.592;2022-11-15T09:08:05;16.70;99.90
54168;DHT22;40072;50.958;3.592;2022-11-15T09:10:31;16.10;99.90
54168;DHT22;40072;50.958;3.592;2022-11-15T09:12:57;16.00;99.90
54168;DHT22;40072;50.958;3.592;2022-11-15T09:15:23;15.90;99.90
54168;DHT22;40072;50.958;3.592;2022-11-15T09:17:49;16.40;99.90
54168;DHT22;40072;50.958;3.592;2022-11-15T09:20:15;15.90;99.90
54168;DHT22;40072;50.958;3.592;2022-11-15T09:22:40;15.70;99.90
54168;DHT22;40072;50.958;3.592;2022-11-15T09:25:07;15.60;99.90
54168;DHT22;40072;50.958;3.592;2022-11-15T09:27:33;15.30;99.90
54168;DHT22;40072;50.958;3.592;2022-11-15T09:29:58;15.40;99.90
54168;DHT22;40072;50.958;3.592;2022-11-15T09:32:28;15.80;99.90
54168;DHT22;40072;50.958;3.592;2022-11-15T09:34:55;16.40;99.90
54168;DHT22;40072;50.958;3.592;2022-11-15T09:37:21;16.90;99.90
54168;DHT22;40072;50.958;3.592;2022-11-15T09:39:47;17.00;99.90
54168;DHT22;40072;50.958;3.592;2022-11-15T09:45:03;17.60;99.90
54168;DHT22;40072;50.958;3.592;2022-11-15T09:50:09;18.10;99.40
54168;DHT22;40072;50.958;3.592;2022-11-15T09:52:36;18.00;99.90
54168;DHT22;40072;50.958;3.592;2022-11-15T09:55:05;18.50;99.60
54168;DHT22;40072;50.958;3.592;2022-11-15T09:57:32;19.00;98.20
54168;DHT22;40072;50.958;3.592;2022-11-15T10:00:22;18.70;98.30
54168;DHT22;40072;50.958;3.592;2022-11-15T10:03:15;17.90;99.30
54168;DHT22;40072;50.958;3.592;2022-11-15T10:05:50;17.50;99.90
54168;DHT22;40072;50.958;3.592;2022-11-15T10:08:22;17.60;99.90
54168;DHT22;40072;50.958;3.592;2022-11-15T10:10:51;17.80;99.70
54168;DHT22;40072;50.958;3.592;2022-11-15T10:13:24;18.00;99.60
54168;DHT22;40072;50.958;3.592;2022-11-15T10:15:53;18.20;99.30
54168;DHT22;40072;50.958;3.592;2022-11-15T10:18:24;18.20;98.80
54168;DHT22;40072;50.958;3.592;2022-11-15T10:20:58;17.70;99.40
54168;DHT22;40072;50.958;3.592;2022-11-15T10:23:25;17.10;99.90
54168;DHT22;40072;50.958;3.592;2022-11-15T10:26:00;17.20;99.90
54168;DHT22;40072;50.958;3.592;2022-11-15T10:28:30;17.00;99.90
54168;DHT22;40072;50.958;3.592;2022-11-15T10:30:59;17.00;99.90
54168;DHT22;40072;50.958;3.592;2022-11-15T10:33:36;17.00;99.90
54168;DHT22;40072;50.958;3.592;2022-11-15T10:39:00;17.10;99.90
54168;DHT22;40072;50.958;3.592;2022-11-15T10:41:30;16.80;99.90
54168;DHT22;40072;50.958;3.592;2022-11-15T10:49:23;16.00;99.90
54168;DHT22;40072;50.958;3.592;2022-11-15T10:52:15;16.50;99.90
54168;DHT22;40072;50.958;3.592;2022-11-15T10:54:43;16.90;99.90
54168;DHT22;40072;50.958;3.592;2022-11-15T10:57:21;16.80;99.90
54168;DHT22;40072;50.958;3.592;2022-11-15T10:59:53;17.20;99.90
54168;DHT22;40072;50.958;3.592;2022-11-15T11:02:37;17.20;99.90
54168;DHT22;40072;50.958;3.592;2022-11-15T11:07:59;16.80;99.90
54168;DHT22;40072;50.958;3.592;2022-11-15T11:10:25;16.40;99.90
54168;DHT22;40072;50.958;3.592;2022-11-15T11:12:51;15.70;99.90
54168;DHT22;40072;50.958;3.592;2022-11-15T11:15:17;15.20;99.90
54168;DHT22;40072;50.958;3.592;2022-11-15T11:18:06;14.80;99.90
54168;DHT22;40072;50.958;3.592;2022-11-15T11:20:51;14.40;99.90
54168;DHT22;40072;50.958;3.592;2022-11-15T11:26:01;14.10;99.90
54168;DHT22;40072;50.958;3.592;2022-11-15T11:29:07;14.30;99.90
54168;DHT22;40072;50.958;3.592;2022-11-15T11:31:48;14.20;99.90
54168;DHT22;40072;50.958;3.592;2022-11-15T11:37:43;14.30;99.90
54168;DHT22;40072;50.958;3.592;2022-11-15T11:42:54;14.30;99.90
54168;DHT22;40072;50.958;3.592;2022-11-15T11:51:05;14.00;99.90
54168;DHT22;40072;50.958;3.592;2022-11-15T11:54:05;14.00;99.90
54168;DHT22;40072;50.958;3.592;2022-11-15T11:56:31;13.90;99.90
54168;DHT22;40072;50.958;3.592;2022-11-15T11:59:23;13.80;99.90
54168;DHT22;40072;50.958;3.592;2022-11-15T12:01:51;13.80;99.90
54168;DHT22;40072;50.958;3.592;2022-11-15T12:04:38;13.90;99.90
54168;DHT22;40072;50.958;3.592;2022-11-15T12:07:22;13.90;99.90
54168;DHT22;40072;50.958;3.592;2022-11-15T12:09:57;13.70;99.90
54168;DHT22;40072;50.958;3.592;2022-11-15T12:15:16;13.60;99.90
54168;DHT22;40072;50.958;3.592;2022-11-15T12:17:44;13.50;99.90
54168;DHT22;40072;50.958;3.592;2022-11-15T12:20:21;13.50;99.90
54168;DHT22;40072;50.958;3.592;2022-11-15T12:23:01;13.60;99.90
54168;DHT22;40072;50.958;3.592;2022-11-15T12:25:50;13.50;99.90
54168;DHT22;40072;50.958;3.592;2022-11-15T12:28:24;13.60;99.90
54168;DHT22;40072;50.958;3.592;2022-11-15T12:31:05;13.70;99.90
54168;DHT22;40072;50.958;3.592;2022-11-15T12:33:42;13.70;99.90
54168;DHT22;40072;50.958;3.592;2022-11-15T12:39:03;13.60;99.90
54168;DHT22;40072;50.958;3.592;2022-11-15T12:41:33;13.70;99.90
54168;DHT22;40072;50.958;3.592;2022-11-15T12:43:59;13.70;99.90
54168;DHT22;40072;50.958;3.592;2022-11-15T12:48:59;13.60;99.90
54168;DHT22;40072;50.958;3.592;2022-11-15T13:17:39;13.40;99.90
54168;DHT22;40072;50.958;3.592;2022-11-15T13:33:24;13.30;99.90
54168;DHT22;40072;50.958;3.592;2022-11-15T13:35:53;13.10;99.90
54168;DHT22;40072;50.958;3.592;2022-11-15T13:38:34;13.10;99.90
54168;DHT22;40072;50.958;3.592;2022-11-15T13:41:22;13.10;99.90
54168;DHT22;40072;50.958;3.592;2022-11-15T13:43:50;13.00;99.90
54168;DHT22;40072;50.958;3.592;2022-11-15T13:46:22;12.90;99.90
54168;DHT22;40072;50.958;3.592;2022-11-15T13:49:00;12.70;99.90
54168;DHT22;40072;50.958;3.592;2022-11-15T13:51:39;12.50;99.90
54168;DHT22;40072;50.958;3.592;2022-11-15T13:56:44;12.40;99.90
54168;DHT22;40072;50.958;3.592;2022-11-15T14:02:15;12.30;99.90
54168;DHT22;40072;50.958;3.592;2022-11-15T14:05:15;12.20;99.90
54168;DHT22;40072;50.958;3.592;2022-11-15T14:07:56;12.20;99.90
54168;DHT22;40072;50.958;3.592;2022-11-15T14:10:29;12.10;99.90
54168;DHT22;40072;50.958;3.592;2022-11-15T14:12:56;12.10;99.90
54168;DHT22;40072;50.958;3.592;2022-11-15T14:15:35;12.00;99.90
54168;DHT22;40072;50.958;3.592;2022-11-15T14:18:01;11.80;99.90
54168;DHT22;40072;50.958;3.592;2022-11-15T14:20:37;11.80;99.90
54168;DHT22;40072;50.958;3.592;2022-11-15T14:23:26;11.80;99.90
54168;DHT22;40072;50.958;3.592;2022-11-15T14:25:54;11.70;99.90
54168;DHT22;40072;50.958;3.592;2022-11-15T14:30:50;11.70;99.90
54168;DHT22;40072;50.958;3.592;2022-11-15T14:33:33;11.60;99.90
54168;DHT22;40072;50.958;3.592;2022-11-15T14:38:29;11.60;99.90
54168;DHT22;40072;50.958;3.592;2022-11-15T14:40:54;11.50;99.90
54168;DHT22;40072;50.958;3.592;2022-11-15T14:43:22;11.50;99.90
54168;DHT22;40072;50.958;3.592;2022-11-15T14:45:47;11.50;99.90
54168;DHT22;40072;50.958;3.592;2022-11-15T14:48:13;11.60;99.90
54168;DHT22;40072;50.958;3.592;2022-11-15T14:50:39;11.60;99.90
54168;DHT22;40072;50.958;3.592;2022-11-15T14:53:05;11.60;99.90
54168;DHT22;40072;50.958;3.592;2022-11-15T14:55:35;11.60;99.90
54168;DHT22;40072;50.958;3.592;2022-11-15T14:58:06;11.60;99.90
54168;DHT22;40072;50.958;3.592;2022-11-15T15:00:36;11.60;99.90
54168;DHT22;40072;50.958;3.592;2022-11-15T15:03:02;11.60;99.90
54168;DHT22;40072;50.958;3.592;2022-11-15T15:05:32;11.60;99.90
54168;DHT22;40072;50.958;3.592;2022-11-15T15:07:58;11.60;99.90
54168;DHT22;40072;50.958;3.592;2022-11-15T15:10:24;11.60;99.90
54168;DHT22;40072;50.958;3.592;2022-11-15T15:12:50;11.60;99.90
54168;DHT22;40072;50.958;3.592;2022-11-15T15:15:20;11.60;99.90
54168;DHT22;40072;50.958;3.592;2022-11-15T15:17:47;11.70;99.90
54168;DHT22;40072;50.958;3.592;2022-11-15T15:20:12;11.70;99.90
54168;DHT22;40072;50.958;3.592;2022-11-15T15:22:38;11.70;99.90
54168;DHT22;40072;50.958;3.592;2022-11-15T15:25:28;11.70;99.90
54168;DHT22;40072;50.958;3.592;2022-11-15T15:27:55;11.80;99.90
54168;DHT22;40072;50.958;3.592;2022-11-15T15:30:22;11.80;99.90
54168;DHT22;40072;50.958;3.592;2022-11-15T15:32:48;11.70;99.90
54168;DHT22;40072;50.958;3.592;2022-11-15T15:35:15;11.80;99.90
54168;DHT22;40072;50.958;3.592;2022-11-15T15:37:42;11.80;99.90
54168;DHT22;40072;50.958;3.592;2022-11-15T15:40:18;11.80;99.90
54168;DHT22;40072;50.958;3.592;2022-11-15T15:42:45;11.80;99.90
54168;DHT22;40072;50.958;3.592;2022-11-15T15:45:11;11.90;99.90
54168;DHT22;40072;50.958;3.592;2022-11-15T15:47:37;11.80;99.90
54168;DHT22;40072;50.958;3.592;2022-11-15T15:50:12;11.80;99.90
54168;DHT22;40072;50.958;3.592;2022-11-15T15:52:40;11.80;99.90
54168;DHT22;40072;50.958;3.592;2022-11-15T15:55:05;11.90;99.90
54168;DHT22;40072;50.958;3.592;2022-11-15T15:57:32;11.80;99.90
54168;DHT22;40072;50.958;3.592;2022-11-15T15:59:57;11.80;99.90
54168;DHT22;40072;50.958;3.592;2022-11-15T16:02:23;11.80;99.90
54168;DHT22;40072;50.958;3.592;2022-11-15T16:04:48;11.80;99.90
54168;DHT22;40072;50.958;3.592;2022-11-15T16:07:21;11.90;99.90
54168;DHT22;40072;50.958;3.592;2022-11-15T16:09:49;11.90;99.90
54168;DHT22;40072;50.958;3.592;2022-11-15T16:12:32;11.90;99.90
54168;DHT22;40072;50.958;3.592;2022-11-15T16:14:58;11.90;99.90
54168;DHT22;40072;50.958;3.592;2022-11-15T16:17:27;11.80;99.90
54168;DHT22;40072;50.958;3.592;2022-11-15T16:19:53;11.80;99.90
54168;DHT22;40072;50.958;3.592;2022-11-15T16:22:19;11.80;99.90
54168;DHT22;40072;50.958;3.592;2022-11-15T16:24:45;11.80;99.90
54168;DHT22;40072;50.958;3.592;2022-11-15T16:27:15;11.80;99.90
54168;DHT22;40072;50.958;3.592;2022-11-15T16:29:42;11.80;99.90
54168;DHT22;40072;50.958;3.592;2022-11-15T16:32:07;11.80;99.90
54168;DHT22;40072;50.958;3.592;2022-11-15T16:34:33;11.90;99.90
54168;DHT22;40072;50.958;3.592;2022-11-15T16:36:59;12.00;99.90
54168;DHT22;40072;50.958;3.592;2022-11-15T16:39:25;12.00;99.90
54168;DHT22;40072;50.958;3.592;2022-11-15T16:41:53;12.00;99.90
54168;DHT22;40072;50.958;3.592;2022-11-15T16:44:18;12.00;99.90
54168;DHT22;40072;50.958;3.592;2022-11-15T16:46:44;12.00;99.90
54168;DHT22;40072;50.958;3.592;2022-11-15T16:49:16;12.00;99.90
54168;DHT22;40072;50.958;3.592;2022-11-15T16:51:45;12.10;99.90
54168;DHT22;40072;50.958;3.592;2022-11-15T16:54:11;12.10;99.90
54168;DHT22;40072;50.958;3.592;2022-11-15T16:56:37;12.10;99.90
54168;DHT22;40072;50.958;3.592;2022-11-15T16:59:03;12.10;99.90
54168;DHT22;40072;50.958;3.592;2022-11-15T17:01:34;12.10;99.90
54168;DHT22;40072;50.958;3.592;2022-11-15T17:04:01;12.00;99.90
54168;DHT22;40072;50.958;3.592;2022-11-15T17:06:38;11.80;99.90
54168;DHT22;40072;50.958;3.592;2022-11-15T17:09:05;11.80;99.90
54168;DHT22;40072;50.958;3.592;2022-11-15T17:11:31;11.80;99.90
54168;DHT22;40072;50.958;3.592;2022-11-15T17:13:58;11.90;99.90
54168;DHT22;40072;50.958;3.592;2022-11-15T17:16:24;12.00;99.90
54168;DHT22;40072;50.958;3.592;2022-11-15T17:18:51;12.10;99.90
54168;DHT22;40072;50.958;3.592;2022-11-15T17:21:21;12.20;99.90
54168;DHT22;40072;50.958;3.592;2022-11-15T17:23:47;12.20;99.90
54168;DHT22;40072;50.958;3.592;2022-11-15T17:26:14;12.20;99.90
54168;DHT22;40072;50.958;3.592;2022-11-15T17:28:41;12.10;99.90
54168;DHT22;40072;50.958;3.592;2022-11-15T17:31:08;12.10;99.90
54168;DHT22;40072;50.958;3.592;2022-11-15T17:33:35;12.00;99.90
54168;DHT22;40072;50.958;3.592;2022-11-15T17:36:03;12.20;99.90
54168;DHT22;40072;50.958;3.592;2022-11-15T17:38:29;12.10;99.90
54168;DHT22;40072;50.958;3.592;2022-11-15T17:41:03;12.10;99.90
54168;DHT22;40072;50.958;3.592;2022-11-15T17:43:31;12.10;99.90
54168;DHT22;40072;50.958;3.592;2022-11-15T17:46:01;12.10;99.90
54168;DHT22;40072;50.958;3.592;2022-11-15T17:48:29;12.20;99.90
54168;DHT22;40072;50.958;3.592;2022-11-15T17:51:00;12.20;99.90
54168;DHT22;40072;50.958;3.592;2022-11-15T17:53:26;12.20;99.90
54168;DHT22;40072;50.958;3.592;2022-11-15T17:55:53;12.30;99.90
54168;DHT22;40072;50.958;3.592;2022-11-15T17:58:19;12.30;99.90
54168;DHT22;40072;50.958;3.592;2022-11-15T18:00:45;12.20;99.90
54168;DHT22;40072;50.958;3.592;2022-11-15T18:03:11;12.20;99.90
54168;DHT22;40072;50.958;3.592;2022-11-15T18:05:37;12.30;99.90
54168;DHT22;40072;50.958;3.592;2022-11-15T18:08:03;12.20;99.90
54168;DHT22;40072;50.958;3.592;2022-11-15T18:10:29;12.20;99.90
54168;DHT22;40072;50.958;3.592;2022-11-15T18:12:55;12.30;99.90
54168;DHT22;40072;50.958;3.592;2022-11-15T18:15:20;12.30;99.90
54168;DHT22;40072;50.958;3.592;2022-11-15T18:17:46;12.30;99.90
54168;DHT22;40072;50.958;3.592;2022-11-15T18:20:12;12.30;99.90
54168;DHT22;40072;50.958;3.592;2022-11-15T18:22:38;12.30;99.90
54168;DHT22;40072;50.958;3.592;2022-11-15T18:25:04;12.30;99.90
54168;DHT22;40072;50.958;3.592;2022-11-15T18:27:30;12.30;99.90
54168;DHT22;40072;50.958;3.592;2022-11-15T18:29:55;12.30;99.90
54168;DHT22;40072;50.958;3.592;2022-11-15T18:32:21;12.40;99.90
54168;DHT22;40072;50.958;3.592;2022-11-15T18:34:47;12.40;99.90
54168;DHT22;40072;50.958;3.592;2022-11-15T18:37:12;12.40;99.90
54168;DHT22;40072;50.958;3.592;2022-11-15T18:39:38;12.30;99.90
54168;DHT22;40072;50.958;3.592;2022-11-15T18:42:04;12.40;99.90
54168;DHT22;40072;50.958;3.592;2022-11-15T18:44:30;12.50;99.90
54168;DHT22;40072;50.958;3.592;2022-11-15T18:46:55;12.50;99.90
54168;DHT22;40072;50.958;3.592;2022-11-15T18:49:21;12.60;99.90
54168;DHT22;40072;50.958;3.592;2022-11-15T18:51:47;12.70;99.90
54168;DHT22;40072;50.958;3.592;2022-11-15T18:54:14;12.80;99.90
54168;DHT22;40072;50.958;3.592;2022-11-15T18:56:41;12.80;99.90
54168;DHT22;40072;50.958;3.592;2022-11-15T18:59:09;12.80;99.90
54168;DHT22;40072;50.958;3.592;2022-11-15T19:01:36;12.70;99.90
54168;DHT22;40072;50.958;3.592;2022-11-15T19:04:14;12.80;99.90
54168;DHT22;40072;50.958;3.592;2022-11-15T19:06:42;12.80;99.90
54168;DHT22;40072;50.958;3.592;2022-11-15T19:09:10;12.80;99.90
54168;DHT22;40072;50.958;3.592;2022-11-15T19:11:38;12.80;99.90
54168;DHT22;40072;50.958;3.592;2022-11-15T19:14:09;12.90;99.90
54168;DHT22;40072;50.958;3.592;2022-11-15T19:16:40;12.90;99.90
54168;DHT22;40072;50.958;3.592;2022-11-15T19:19:11;12.90;99.90
54168;DHT22;40072;50.958;3.592;2022-11-15T19:21:37;12.90;99.90
54168;DHT22;40072;50.958;3.592;2022-11-15T19:24:03;12.90;99.90
54168;DHT22;40072;50.958;3.592;2022-11-15T19:26:29;12.90;99.90
54168;DHT22;40072;50.958;3.592;2022-11-15T19:28:58;12.90;99.90
54168;DHT22;40072;50.958;3.592;2022-11-15T19:31:25;13.10;99.90
54168;DHT22;40072;50.958;3.592;2022-11-15T19:33:51;13.10;99.90
54168;DHT22;40072;50.958;3.592;2022-11-15T19:36:23;13.10;99.90
54168;DHT22;40072;50.958;3.592;2022-11-15T19:38:50;13.10;99.90
54168;DHT22;40072;50.958;3.592;2022-11-15T19:41:20;13.00;99.90
54168;DHT22;40072;50.958;3.592;2022-11-15T19:43:47;13.00;99.90
54168;DHT22;40072;50.958;3.592;2022-11-15T19:46:13;13.00;99.90
54168;DHT22;40072;50.958;3.592;2022-11-15T19:48:39;13.10;99.90
54168;DHT22;40072;50.958;3.592;2022-11-15T19:51:14;13.20;99.90
54168;DHT22;40072;50.958;3.592;2022-11-15T19:53:40;13.20;99.90
54168;DHT22;40072;50.958;3.592;2022-11-15T19:56:09;13.20;99.90
54168;DHT22;40072;50.958;3.592;2022-11-15T19:58:35;13.20;99.90
54168;DHT22;40072;50.958;3.592;2022-11-15T20:01:07;13.30;99.90
54168;DHT22;40072;50.958;3.592;2022-11-15T20:03:34;13.20;99.90
54168;DHT22;40072;50.958;3.592;2022-11-15T20:06:08;13.10;99.90
54168;DHT22;40072;50.958;3.592;2022-11-15T20:08:35;13.10;99.90
54168;DHT22;40072;50.958;3.592;2022-11-15T20:11:02;13.10;99.90
54168;DHT22;40072;50.958;3.592;2022-11-15T20:13:28;13.00;99.90
54168;DHT22;40072;50.958;3.592;2022-11-15T20:15:54;13.00;99.90
54168;DHT22;40072;50.958;3.592;2022-11-15T20:18:21;13.00;99.90
54168;DHT22;40072;50.958;3.592;2022-11-15T20:20:47;13.00;99.90
54168;DHT22;40072;50.958;3.592;2022-11-15T20:23:14;13.00;99.90
54168;DHT22;40072;50.958;3.592;2022-11-15T20:25:43;13.00;99.90
54168;DHT22;40072;50.958;3.592;2022-11-15T20:28:15;13.00;99.90
54168;DHT22;40072;50.958;3.592;2022-11-15T20:30:43;13.10;99.90
54168;DHT22;40072;50.958;3.592;2022-11-15T20:33:09;13.10;99.90
54168;DHT22;40072;50.958;3.592;2022-11-15T20:35:35;13.10;99.90
54168;DHT22;40072;50.958;3.592;2022-11-15T20:38:00;13.00;99.90
54168;DHT22;40072;50.958;3.592;2022-11-15T20:40:26;13.10;99.90
54168;DHT22;40072;50.958;3.592;2022-11-15T20:42:52;13.10;99.90
54168;DHT22;40072;50.958;3.592;2022-11-15T20:45:18;13.20;99.90
54168;DHT22;40072;50.958;3.592;2022-11-15T20:47:44;13.20;99.90
54168;DHT22;40072;50.958;3.592;2022-11-15T20:50:10;13.10;99.90
54168;DHT22;40072;50.958;3.592;2022-11-15T20:52:35;13.20;99.90
54168;DHT22;40072;50.958;3.592;2022-11-15T20:55:01;13.20;99.90
54168;DHT22;40072;50.958;3.592;2022-11-15T20:57:27;13.20;99.90
54168;DHT22;40072;50.958;3.592;2022-11-15T20:59:52;13.20;99.90
54168;DHT22;40072;50.958;3.592;2022-11-15T21:02:18;13.20;99.90
54168;DHT22;40072;50.958;3.592;2022-11-15T21:04:43;13.30;99.90
54168;DHT22;40072;50.958;3.592;2022-11-15T21:07:09;13.30;99.90
54168;DHT22;40072;50.958;3.592;2022-11-15T21:09:35;13.30;99.90
54168;DHT22;40072;50.958;3.592;2022-11-15T21:12:19;13.30;99.90
54168;DHT22;40072;50.958;3.592;2022-11-15T21:14:45;13.20;99.90
54168;DHT22;40072;50.958;3.592;2022-11-15T21:17:14;13.20;99.90
54168;DHT22;40072;50.958;3.592;2022-11-15T21:19:41;13.20;99.90
54168;DHT22;40072;50.958;3.592;2022-11-15T21:22:08;13.30;99.90
54168;DHT22;40072;50.958;3.592;2022-11-15T21:24:35;13.40;99.90
54168;DHT22;40072;50.958;3.592;2022-11-15T21:27:01;13.40;99.90
54168;DHT22;40072;50.958;3.592;2022-11-15T21:29:27;13.20;99.90
54168;DHT22;40072;50.958;3.592;2022-11-15T21:31:53;13.00;99.90
54168;DHT22;40072;50.958;3.592;2022-11-15T21:34:19;13.20;99.90
54168;DHT22;40072;50.958;3.592;2022-11-15T21:36:44;13.30;99.90
54168;DHT22;40072;50.958;3.592;2022-11-15T21:39:10;13.30;99.90
54168;DHT22;40072;50.958;3.592;2022-11-15T21:41:36;13.20;99.90
54168;DHT22;40072;50.958;3.592;2022-11-15T21:44:03;13.10;99.90